Time,TemperatureF,DewpointF,PressureIn,WindDirection,WindDirectionDegrees,WindSpeedMPH,WindSpeedGustMPH,Humidity,HourlyPrecipIn,Conditions,Clouds,dailyrainin,SoftwareType,DateUTC
2013-09-20 00:00:00,51.3,50.0,30.06,SE,137,0.0,0.0,96,0.00,,,0.00,weatherlink.com 1.10,2013-09-20 04:00:00,
2013-09-20 00:15:00,51.0,50.0,30.06,SE,137,0.0,0.0,96,0.00,,,0.00,weatherlink.com 1.10,2013-09-20 04:15:00,
2013-09-20 00:30:00,50.7,50.0,30.06,SE,137,0.0,0.0,96,0.00,,,0.00,weatherlink.com 1.10,2013-09-20 04:30:00,
2013-09-20 00:45:00,50.6,50.0,30.06,SE,137,0.0,0.0,97,0.00,,,0.00,weatherlink.com 1.10,2013-09-20 04:45:00,
2013-09-20 01:00:00,50.4,50.0,30.06,SE,137,0.0,0.0,97,0.00,,,0.00,weatherlink.com 1.10,2013-09-20 05:00:00,
2013-09-20 01:15:00,50.2,49.0,30.06,SE,137,0.0,0.0,97,0.00,,,0.00,weatherlink.com 1.10,2013-09-20 05:15:00,
2013-09-20 01:30:00,50.1,49.0,30.06,SE,137,0.0,0.0,97,0.00,,,0.00,weatherlink.com 1.10,2013-09-20 05:30:00,
2013-09-20 01:45:00,50.1,49.0,30.07,SE,137,0.0,0.0,97,0.00,,,0.00,weatherlink.com 1.10,2013-09-20 05:45:00,
2013-09-20 02:00:00,49.9,49.0,30.06,SE,137,0.0,0.0,96,0.00,,,0.00,weatherlink.com 1.10,2013-09-20 06:00:00,
2013-09-20 02:15:00,49.8,49.0,30.06,SE,137,0.0,0.0,97,0.00,,,0.00,weatherlink.com 1.10,2013-09-20 06:15:00,
2013-09-20 02:30:00,49.5,49.0,30.06,SE,137,0.0,0.0,97,0.00,,,0.00,weatherlink.com 1.10,2013-09-20 06:30:00,
2013-09-20 02:45:00,49.3,49.0,30.06,SE,137,0.0,0.0,97,0.00,,,0.00,weatherlink.com 1.10,2013-09-20 06:45:00,
2013-09-20 03:00:00,49.1,48.0,30.06,SE,137,0.0,0.0,97,0.00,,,0.00,weatherlink.com 1.10,2013-09-20 07:00:00,
2013-09-20 03:15:00,48.8,48.0,30.06,SE,137,0.0,0.0,97,0.00,,,0.00,weatherlink.com 1.10,2013-09-20 07:15:00,
2013-09-20 03:31:00,48.8,48.0,30.07,SE,137,0.0,0.0,97,0.00,,,0.00,weatherlink.com 1.10,2013-09-20 07:31:00,
2013-09-20 03:46:00,48.6,48.0,30.07,SE,137,0.0,0.0,97,0.00,,,0.00,weatherlink.com 1.10,2013-09-20 07:46:00,
2013-09-20 04:01:00,48.4,48.0,30.06,SE,137,0.0,0.0,97,0.00,,,0.00,weatherlink.com 1.10,2013-09-20 08:01:00,
2013-09-20 04:16:00,48.3,48.0,30.06,SE,137,0.0,0.0,97,0.00,,,0.00,weatherlink.com 1.10,2013-09-20 08:16:00,
2013-09-20 04:31:00,48.2,47.0,30.05,SE,137,0.0,0.0,97,0.00,,,0.00,weatherlink.com 1.10,2013-09-20 08:31:00,
2013-09-20 04:46:00,47.9,47.0,30.06,SE,137,0.0,0.0,97,0.00,,,0.00,weatherlink.com 1.10,2013-09-20 08:46:00,
2013-09-20 05:01:00,47.7,47.0,30.06,SE,137,0.0,0.0,97,0.00,,,0.00,weatherlink.com 1.10,2013-09-20 09:01:00,
2013-09-20 05:16:00,47.5,47.0,30.06,SE,137,0.0,0.0,97,0.00,,,0.00,weatherlink.com 1.10,2013-09-20 09:16:00,
2013-09-20 05:31:00,47.2,46.0,30.05,SE,137,0.0,0.0,97,0.00,,,0.00,weatherlink.com 1.10,2013-09-20 09:31:00,
2013-09-20 05:46:00,47.1,46.0,30.05,SE,137,0.0,0.0,97,0.00,,,0.00,weatherlink.com 1.10,2013-09-20 09:46:00,
2013-09-20 06:01:00,46.9,46.0,30.05,SE,137,0.0,0.0,97,0.00,,,0.00,weatherlink.com 1.10,2013-09-20 10:01:00,
2013-09-20 06:16:00,46.7,46.0,30.05,SE,137,0.0,0.0,97,0.00,,,0.00,weatherlink.com 1.10,2013-09-20 10:16:00,
2013-09-20 06:31:00,46.5,46.0,30.06,SE,137,0.0,0.0,97,0.00,,,0.00,weatherlink.com 1.10,2013-09-20 10:31:00,
2013-09-20 06:46:00,46.5,46.0,30.07,SE,137,0.0,0.0,97,0.00,,,0.00,weatherlink.com 1.10,2013-09-20 10:46:00,
2013-09-20 07:01:00,46.3,46.0,30.07,SE,137,0.0,0.0,97,0.00,,,0.00,weatherlink.com 1.10,2013-09-20 11:01:00,
2013-09-20 07:16:00,46.2,45.0,30.07,SE,137,0.0,0.0,97,0.00,,,0.00,weatherlink.com 1.10,2013-09-20 11:16:00,
2013-09-20 07:31:00,46.3,46.0,30.07,SE,136,0.0,1.0,98,0.00,,,0.00,weatherlink.com 1.10,2013-09-20 11:31:00,
2013-09-20 07:46:00,46.7,46.0,30.07,SE,136,0.0,0.0,98,0.00,,,0.00,weatherlink.com 1.10,2013-09-20 11:46:00,
2013-09-20 08:01:00,47.1,47.0,30.07,SE,136,0.0,0.0,98,0.00,,,0.00,weatherlink.com 1.10,2013-09-20 12:01:00,
2013-09-20 08:16:00,47.9,47.0,30.07,SE,136,0.0,0.0,98,0.00,,,0.00,weatherlink.com 1.10,2013-09-20 12:16:00,
2013-09-20 08:31:00,50.9,51.0,30.08,SE,136,0.0,1.0,99,0.00,,,0.00,weatherlink.com 1.10,2013-09-20 12:31:00,
2013-09-20 08:46:00,52.5,52.0,30.07,SE,136,0.0,1.0,99,0.00,,,0.00,weatherlink.com 1.10,2013-09-20 12:46:00,
2013-09-20 09:01:00,54.5,54.0,30.07,SE,135,0.0,0.0,99,0.00,,,0.00,weatherlink.com 1.10,2013-09-20 13:01:00,
2013-09-20 09:16:00,55.3,55.0,30.07,SE,135,0.0,0.0,99,0.00,,,0.00,weatherlink.com 1.10,2013-09-20 13:16:00,
2013-09-20 09:31:00,56.3,56.0,30.08,SE,135,0.0,0.0,99,0.00,,,0.00,weatherlink.com 1.10,2013-09-20 13:31:00,
2013-09-20 09:46:00,57.7,58.0,30.08,SE,135,0.0,1.0,99,0.00,,,0.00,weatherlink.com 1.10,2013-09-20 13:46:00,
2013-09-20 10:01:00,59.7,58.0,30.08,SE,135,0.0,0.0,95,0.00,,,0.00,weatherlink.com 1.10,2013-09-20 14:01:00,
2013-09-20 10:16:00,61.4,59.0,30.07,SE,135,0.0,1.0,91,0.00,,,0.00,weatherlink.com 1.10,2013-09-20 14:16:00,
2013-09-20 10:31:00,63.4,60.0,30.06,SE,136,0.0,0.0,88,0.00,,,0.00,weatherlink.com 1.10,2013-09-20 14:31:00,
2013-09-20 10:46:00,64.7,60.0,30.07,SSE,148,0.0,0.0,85,0.00,,,0.00,weatherlink.com 1.10,2013-09-20 14:46:00,
2013-09-20 11:02:00,66.1,61.0,30.07,South,182,0.0,1.0,82,0.00,,,0.00,weatherlink.com 1.10,2013-09-20 15:02:00,
2013-09-20 11:17:00,67.3,60.0,30.06,SW,219,0.0,1.0,76,0.00,,,0.00,weatherlink.com 1.10,2013-09-20 15:17:00,
2013-09-20 11:32:00,68.1,57.0,30.06,SW,217,0.0,1.0,68,0.00,,,0.00,weatherlink.com 1.10,2013-09-20 15:32:00,
2013-09-20 11:47:00,69.0,57.0,30.06,SW,226,0.0,1.0,66,0.00,,,0.00,weatherlink.com 1.10,2013-09-20 15:47:00,
2013-09-20 12:02:00,69.3,60.0,30.05,SW,228,0.0,1.0,72,0.00,,,0.00,weatherlink.com 1.10,2013-09-20 16:02:00,
2013-09-20 12:17:00,70.1,59.0,30.06,SSW,210,0.0,1.0,67,0.00,,,0.00,weatherlink.com 1.10,2013-09-20 16:17:00,
2013-09-20 12:32:00,70.6,59.0,30.05,SSW,210,0.0,1.0,66,0.00,,,0.00,weatherlink.com 1.10,2013-09-20 16:32:00,
2013-09-20 12:47:00,71.4,59.0,30.04,SSW,210,0.0,0.0,66,0.00,,,0.00,weatherlink.com 1.10,2013-09-20 16:47:00,
2013-09-20 13:02:00,71.9,59.0,30.04,East,98,0.0,2.0,65,0.00,,,0.00,weatherlink.com 1.10,2013-09-20 17:02:00,
2013-09-20 13:17:00,72.9,59.0,30.03,South,178,0.0,2.0,61,0.00,,,0.00,weatherlink.com 1.10,2013-09-20 17:17:00,
2013-09-20 13:32:00,73.6,61.0,30.03,South,174,0.0,0.0,64,0.00,,,0.00,weatherlink.com 1.10,2013-09-20 17:32:00,
2013-09-20 13:47:00,74.1,60.0,30.02,ENE,74,0.0,1.0,61,0.00,,,0.00,weatherlink.com 1.10,2013-09-20 17:47:00,
2013-09-20 14:02:00,74.9,61.0,30.02,SSW,207,0.0,1.0,62,0.00,,,0.00,weatherlink.com 1.10,2013-09-20 18:02:00,
2013-09-20 14:17:00,75.0,60.0,30.02,SSE,167,1.0,1.0,59,0.00,,,0.00,weatherlink.com 1.10,2013-09-20 18:17:00,
2013-09-20 14:32:00,74.7,58.0,30.01,North,6,0.0,1.0,57,0.00,,,0.00,weatherlink.com 1.10,2013-09-20 18:32:00,
2013-09-20 14:47:00,74.3,57.0,30.00,SSE,162,0.0,1.0,56,0.00,,,0.00,weatherlink.com 1.10,2013-09-20 18:47:00,
2013-09-20 15:02:00,74.7,57.0,30.00,SE,124,0.0,1.0,55,0.00,,,0.00,weatherlink.com 1.10,2013-09-20 19:02:00,
2013-09-20 15:17:00,74.6,53.0,30.00,East,82,1.0,1.0,47,0.00,,,0.00,weatherlink.com 1.10,2013-09-20 19:17:00,
2013-09-20 15:32:00,73.9,52.0,30.00,SE,134,1.0,1.0,47,0.00,,,0.00,weatherlink.com 1.10,2013-09-20 19:32:00,
2013-09-20 15:47:00,73.6,56.0,30.00,SSE,167,1.0,1.0,54,0.00,,,0.00,weatherlink.com 1.10,2013-09-20 19:47:00,
2013-09-20 16:02:00,73.1,57.0,29.99,ENE,72,0.0,1.0,58,0.00,,,0.00,weatherlink.com 1.10,2013-09-20 20:02:00,
2013-09-20 16:17:00,72.5,59.0,29.99,WNW,288,0.0,1.0,62,0.00,,,0.00,weatherlink.com 1.10,2013-09-20 20:17:00,
2013-09-20 16:32:00,72.2,60.0,29.99,SE,139,0.0,1.0,65,0.00,,,0.00,weatherlink.com 1.10,2013-09-20 20:32:00,
2013-09-20 16:47:00,71.7,60.0,29.99,North,353,0.0,2.0,66,0.00,,,0.00,weatherlink.com 1.10,2013-09-20 20:47:00,
2013-09-20 17:02:00,70.8,61.0,30.00,WNW,302,0.0,1.0,70,0.00,,,0.00,weatherlink.com 1.10,2013-09-20 21:02:00,
2013-09-20 17:17:00,70.2,60.0,30.00,WNW,290,0.0,1.0,70,0.00,,,0.00,weatherlink.com 1.10,2013-09-20 21:17:00,
2013-09-20 17:47:00,68.5,60.0,30.00,NE,35,0.0,0.0,75,0.00,,,0.00,weatherlink.com 1.10,2013-09-20 21:47:00,
2013-09-20 18:02:00,67.6,61.0,30.00,NE,35,0.0,0.0,78,0.00,,,0.00,weatherlink.com 1.10,2013-09-20 22:02:00,
2013-09-20 18:17:00,66.8,60.0,30.00,NE,36,0.0,0.0,80,0.00,,,0.00,weatherlink.com 1.10,2013-09-20 22:17:00,
2013-09-20 18:32:00,65.9,61.0,30.00,NE,36,0.0,0.0,84,0.00,,,0.00,weatherlink.com 1.10,2013-09-20 22:32:00,
2013-09-20 18:47:00,64.8,59.0,30.00,NE,37,0.0,1.0,82,0.00,,,0.00,weatherlink.com 1.10,2013-09-20 22:47:00,
2013-09-20 19:02:00,63.8,58.0,30.00,NE,39,0.0,0.0,82,0.00,,,0.00,weatherlink.com 1.10,2013-09-20 23:02:00,
2013-09-20 19:17:00,62.7,58.0,30.00,NE,46,0.0,0.0,84,0.00,,,0.00,weatherlink.com 1.10,2013-09-20 23:17:00,
2013-09-20 19:32:00,61.5,58.0,30.00,NE,45,0.0,0.0,87,0.00,,,0.00,weatherlink.com 1.10,2013-09-20 23:32:00,
2013-09-20 19:47:00,60.7,57.0,30.00,NE,46,0.0,1.0,88,0.00,,,0.00,weatherlink.com 1.10,2013-09-20 23:47:00,
2013-09-20 20:02:00,59.7,57.0,30.00,NE,45,0.0,0.0,90,0.00,,,0.00,weatherlink.com 1.10,2013-09-21 00:02:00,
2013-09-20 20:17:00,58.9,56.0,30.01,NE,46,0.0,0.0,91,0.00,,,0.00,weatherlink.com 1.10,2013-09-21 00:17:00,
2013-09-20 20:32:00,58.3,56.0,30.01,NE,45,0.0,0.0,92,0.00,,,0.00,weatherlink.com 1.10,2013-09-21 00:32:00,
2013-09-20 20:47:00,57.7,56.0,30.01,NE,46,0.0,0.0,94,0.00,,,0.00,weatherlink.com 1.10,2013-09-21 00:47:00,
2013-09-20 21:02:00,57.0,55.0,30.01,NE,46,0.0,0.0,94,0.00,,,0.00,weatherlink.com 1.10,2013-09-21 01:02:00,
2013-09-20 21:17:00,56.5,55.0,30.01,NE,45,0.0,0.0,94,0.00,,,0.00,weatherlink.com 1.10,2013-09-21 01:17:00,
2013-09-20 21:32:00,56.1,55.0,30.01,NE,46,0.0,0.0,95,0.00,,,0.00,weatherlink.com 1.10,2013-09-21 01:32:00,
2013-09-20 21:47:00,55.6,54.0,30.01,NE,46,0.0,0.0,95,0.00,,,0.00,weatherlink.com 1.10,2013-09-21 01:47:00,
2013-09-20 22:02:00,55.3,54.0,30.01,NE,46,0.0,0.0,96,0.00,,,0.00,weatherlink.com 1.10,2013-09-21 02:02:00,
2013-09-20 22:17:00,55.0,54.0,30.00,NE,45,0.0,0.0,96,0.00,,,0.00,weatherlink.com 1.10,2013-09-21 02:17:00,
2013-09-20 22:32:00,54.5,53.0,30.01,NE,45,0.0,0.0,96,0.00,,,0.00,weatherlink.com 1.10,2013-09-21 02:32:00,
2013-09-20 22:47:00,54.2,53.0,30.00,NE,45,0.0,0.0,96,0.00,,,0.00,weatherlink.com 1.10,2013-09-21 02:47:00,
2013-09-20 23:02:00,53.9,53.0,30.00,NE,46,0.0,0.0,96,0.00,,,0.00,weatherlink.com 1.10,2013-09-21 03:02:00,
2013-09-20 23:17:00,53.9,53.0,30.00,NE,45,0.0,0.0,97,0.00,,,0.00,weatherlink.com 1.10,2013-09-21 03:17:00,
2013-09-20 23:32:00,53.5,52.0,30.00,NE,46,0.0,1.0,96,0.00,,,0.00,weatherlink.com 1.10,2013-09-21 03:32:00,
2013-09-20 23:47:00,53.2,52.0,30.00,NE,45,0.0,0.0,97,0.00,,,0.00,weatherlink.com 1.10,2013-09-21 03:47:00,